sensor_id;sensor_type;location;lat;lon;timestamp;pressure;altitude;pressure_sealevel;temperature;humidity
56142;BME280;42018;48.588;10.836;2023-03-21T00:02:38;97030.22;;;9.70;67.90
56142;BME280;42018;48.588;10.836;2023-03-21T00:05:24;97028.38;;;9.70;68.17
56142;BME280;42018;48.588;10.836;2023-03-21T00:08:09;97031.31;;;9.74;68.38
56142;BME280;42018;48.588;10.836;2023-03-21T00:10:58;97029.97;;;9.71;68.38
56142;BME280;42018;48.588;10.836;2023-03-21T00:13:44;97022.53;;;9.68;69.03
56142;BME280;42018;48.588;10.836;2023-03-21T00:16:29;97020.13;;;9.67;69.41
56142;BME280;42018;48.588;10.836;2023-03-21T00:19:18;97026.47;;;9.66;69.86
56142;BME280;42018;48.588;10.836;2023-03-21T00:22:04;97024.31;;;9.57;70.14
56142;BME280;42018;48.588;10.836;2023-03-21T00:24:50;97016.00;;;9.49;70.43
56142;BME280;42018;48.588;10.836;2023-03-21T00:27:36;97015.59;;;9.62;70.03
56142;BME280;42018;48.588;10.836;2023-03-21T00:30:21;97006.59;;;9.58;70.06
56142;BME280;42018;48.588;10.836;2023-03-21T00:33:07;97002.94;;;9.64;69.51
56142;BME280;42018;48.588;10.836;2023-03-21T00:35:53;96999.59;;;9.79;68.90
56142;BME280;42018;48.588;10.836;2023-03-21T00:38:38;97001.50;;;9.51;69.87
56142;BME280;42018;48.588;10.836;2023-03-21T00:41:23;96991.19;;;9.23;71.65
56142;BME280;42018;48.588;10.836;2023-03-21T00:44:12;96992.09;;;9.33;70.53
56142;BME280;42018;48.588;10.836;2023-03-21T00:46:59;96996.31;;;9.34;70.39
56142;BME280;42018;48.588;10.836;2023-03-21T00:49:46;96988.31;;;9.56;69.34
56142;BME280;42018;48.588;10.836;2023-03-21T00:52:32;96984.47;;;9.74;68.67
56142;BME280;42018;48.588;10.836;2023-03-21T00:55:17;96979.41;;;9.68;68.50
56142;BME280;42018;48.588;10.836;2023-03-21T00:58:03;96980.00;;;9.75;68.48
56142;BME280;42018;48.588;10.836;2023-03-21T01:00:49;96981.09;;;9.84;67.81
56142;BME280;42018;48.588;10.836;2023-03-21T01:03:34;96981.63;;;9.81;67.64
56142;BME280;42018;48.588;10.836;2023-03-21T01:06:26;96975.22;;;9.72;67.83
56142;BME280;42018;48.588;10.836;2023-03-21T01:09:16;96974.28;;;9.56;68.59
56142;BME280;42018;48.588;10.836;2023-03-21T01:12:02;96968.50;;;9.59;68.88
56142;BME280;42018;48.588;10.836;2023-03-21T01:14:47;96972.78;;;9.65;69.01
56142;BME280;42018;48.588;10.836;2023-03-21T01:17:32;96978.06;;;9.65;69.23
56142;BME280;42018;48.588;10.836;2023-03-21T01:20:18;96970.34;;;9.58;68.91
56142;BME280;42018;48.588;10.836;2023-03-21T01:23:03;96975.91;;;9.57;69.74
56142;BME280;42018;48.588;10.836;2023-03-21T01:25:49;96985.53;;;9.41;70.00
56142;BME280;42018;48.588;10.836;2023-03-21T01:28:36;96985.31;;;9.43;69.89
56142;BME280;42018;48.588;10.836;2023-03-21T01:31:21;96975.75;;;9.74;68.66
56142;BME280;42018;48.588;10.836;2023-03-21T01:34:06;96970.66;;;9.67;69.12
56142;BME280;42018;48.588;10.836;2023-03-21T01:36:53;96976.91;;;9.88;68.07
56142;BME280;42018;48.588;10.836;2023-03-21T01:39:38;96965.56;;;9.93;67.72
56142;BME280;42018;48.588;10.836;2023-03-21T01:42:23;96976.19;;;9.98;67.44
56142;BME280;42018;48.588;10.836;2023-03-21T01:48:13;96960.78;;;9.90;67.29
56142;BME280;42018;48.588;10.836;2023-03-21T01:50:58;96969.72;;;9.78;68.08
56142;BME280;42018;48.588;10.836;2023-03-21T01:53:44;96964.50;;;9.56;69.35
56142;BME280;42018;48.588;10.836;2023-03-21T01:56:38;96966.03;;;9.47;70.21
56142;BME280;42018;48.588;10.836;2023-03-21T01:59:33;96964.47;;;9.51;69.82
56142;BME280;42018;48.588;10.836;2023-03-21T02:02:21;96963.78;;;9.34;71.20
56142;BME280;42018;48.588;10.836;2023-03-21T02:05:08;96966.44;;;9.34;71.11
56142;BME280;42018;48.588;10.836;2023-03-21T02:07:53;96964.44;;;9.46;70.48
56142;BME280;42018;48.588;10.836;2023-03-21T02:10:39;96962.19;;;9.65;69.27
56142;BME280;42018;48.588;10.836;2023-03-21T02:13:26;96957.69;;;9.66;69.03
56142;BME280;42018;48.588;10.836;2023-03-21T02:24:56;96953.63;;;9.21;71.76
56142;BME280;42018;48.588;10.836;2023-03-21T02:34:11;96952.72;;;9.10;72.61
56142;BME280;42018;48.588;10.836;2023-03-21T02:37:10;96951.16;;;9.09;72.29
56142;BME280;42018;48.588;10.836;2023-03-21T02:43:18;96946.25;;;8.96;72.74
56142;BME280;42018;48.588;10.836;2023-03-21T02:48:58;96946.22;;;8.91;73.10
56142;BME280;42018;48.588;10.836;2023-03-21T02:51:44;96947.50;;;8.88;73.45
56142;BME280;42018;48.588;10.836;2023-03-21T02:54:32;96946.91;;;8.81;73.50
56142;BME280;42018;48.588;10.836;2023-03-21T02:57:18;96946.50;;;8.94;73.19
56142;BME280;42018;48.588;10.836;2023-03-21T03:00:05;96944.31;;;8.86;73.27
56142;BME280;42018;48.588;10.836;2023-03-21T03:02:56;96948.38;;;8.94;73.17
56142;BME280;42018;48.588;10.836;2023-03-21T03:05:47;96940.25;;;9.00;72.78
56142;BME280;42018;48.588;10.836;2023-03-21T03:11:25;96939.59;;;9.20;71.92
56142;BME280;42018;48.588;10.836;2023-03-21T03:26:01;96927.63;;;9.07;73.01
56142;BME280;42018;48.588;10.836;2023-03-21T03:28:50;96936.69;;;8.90;73.60
56142;BME280;42018;48.588;10.836;2023-03-21T03:31:45;96930.75;;;8.77;73.84
56142;BME280;42018;48.588;10.836;2023-03-21T03:34:33;96925.09;;;8.96;73.11
56142;BME280;42018;48.588;10.836;2023-03-21T03:37:24;96936.38;;;9.13;72.47
56142;BME280;42018;48.588;10.836;2023-03-21T03:40:13;96917.25;;;9.33;71.61
56142;BME280;42018;48.588;10.836;2023-03-21T03:43:02;96927.91;;;9.43;70.73
56142;BME280;42018;48.588;10.836;2023-03-21T03:45:52;96927.91;;;9.43;70.60
56142;BME280;42018;48.588;10.836;2023-03-21T03:48:45;96931.50;;;9.32;71.17
56142;BME280;42018;48.588;10.836;2023-03-21T03:51:42;96931.00;;;9.35;70.92
56142;BME280;42018;48.588;10.836;2023-03-21T03:54:29;96927.69;;;9.18;71.48
56142;BME280;42018;48.588;10.836;2023-03-21T03:57:16;96928.63;;;9.33;70.79
56142;BME280;42018;48.588;10.836;2023-03-21T04:00:02;96928.25;;;9.20;72.03
56142;BME280;42018;48.588;10.836;2023-03-21T04:02:55;96928.25;;;8.93;73.38
56142;BME280;42018;48.588;10.836;2023-03-21T04:05:43;96930.66;;;8.94;73.22
56142;BME280;42018;48.588;10.836;2023-03-21T04:08:30;96931.16;;;8.91;73.60
56142;BME280;42018;48.588;10.836;2023-03-21T04:11:16;96925.88;;;8.91;72.83
56142;BME280;42018;48.588;10.836;2023-03-21T04:14:01;96923.19;;;8.86;73.70
56142;BME280;42018;48.588;10.836;2023-03-21T04:16:46;96917.50;;;8.72;74.48
56142;BME280;42018;48.588;10.836;2023-03-21T04:19:31;96922.00;;;8.72;74.44
56142;BME280;42018;48.588;10.836;2023-03-21T04:22:17;96923.50;;;8.68;74.16
56142;BME280;42018;48.588;10.836;2023-03-21T04:25:02;96925.13;;;8.69;74.49
56142;BME280;42018;48.588;10.836;2023-03-21T04:27:49;96922.41;;;8.63;74.69
56142;BME280;42018;48.588;10.836;2023-03-21T04:30:34;96922.00;;;8.50;75.18
56142;BME280;42018;48.588;10.836;2023-03-21T04:33:19;96920.72;;;8.52;75.10
56142;BME280;42018;48.588;10.836;2023-03-21T04:36:05;96918.25;;;8.46;75.47
56142;BME280;42018;48.588;10.836;2023-03-21T04:38:53;96921.28;;;8.54;75.20
56142;BME280;42018;48.588;10.836;2023-03-21T04:41:39;96919.03;;;8.46;75.49
56142;BME280;42018;48.588;10.836;2023-03-21T04:44:24;96913.56;;;8.31;76.17
56142;BME280;42018;48.588;10.836;2023-03-21T04:47:10;96923.97;;;8.37;75.71
56142;BME280;42018;48.588;10.836;2023-03-21T04:49:57;96916.97;;;8.48;75.50
56142;BME280;42018;48.588;10.836;2023-03-21T04:52:42;96922.38;;;8.58;74.69
56142;BME280;42018;48.588;10.836;2023-03-21T04:55:27;96918.94;;;8.58;74.57
56142;BME280;42018;48.588;10.836;2023-03-21T04:58:15;96925.53;;;8.60;74.44
56142;BME280;42018;48.588;10.836;2023-03-21T05:01:00;96922.66;;;8.62;74.36
56142;BME280;42018;48.588;10.836;2023-03-21T05:03:50;96919.47;;;8.60;73.88
56142;BME280;42018;48.588;10.836;2023-03-21T05:06:35;96924.56;;;8.01;76.35
56142;BME280;42018;48.588;10.836;2023-03-21T05:09:20;96923.06;;;7.88;77.24
56142;BME280;42018;48.588;10.836;2023-03-21T05:12:06;96930.97;;;7.88;77.37
56142;BME280;42018;48.588;10.836;2023-03-21T05:14:51;96922.47;;;7.86;77.83
56142;BME280;42018;48.588;10.836;2023-03-21T05:17:36;96926.75;;;8.09;76.57
56142;BME280;42018;48.588;10.836;2023-03-21T05:20:21;96923.56;;;8.29;75.76
56142;BME280;42018;48.588;10.836;2023-03-21T05:23:10;96917.16;;;8.42;75.09
56142;BME280;42018;48.588;10.836;2023-03-21T05:25:55;96920.34;;;8.44;74.34
56142;BME280;42018;48.588;10.836;2023-03-21T05:28:41;96917.75;;;8.49;74.38
56142;BME280;42018;48.588;10.836;2023-03-21T05:31:26;96914.03;;;8.45;74.73
56142;BME280;42018;48.588;10.836;2023-03-21T05:34:12;96926.28;;;8.34;75.22
56142;BME280;42018;48.588;10.836;2023-03-21T05:36:57;96930.16;;;8.26;76.23
56142;BME280;42018;48.588;10.836;2023-03-21T05:39:43;96927.63;;;8.36;75.66
56142;BME280;42018;48.588;10.836;2023-03-21T05:42:28;96921.34;;;8.37;75.65
56142;BME280;42018;48.588;10.836;2023-03-21T05:45:14;96930.75;;;8.50;75.38
56142;BME280;42018;48.588;10.836;2023-03-21T05:47:59;96932.19;;;8.63;74.27
56142;BME280;42018;48.588;10.836;2023-03-21T05:50:44;96933.16;;;8.57;74.50
56142;BME280;42018;48.588;10.836;2023-03-21T05:53:30;96938.25;;;8.63;74.10
56142;BME280;42018;48.588;10.836;2023-03-21T05:56:15;96934.06;;;8.68;73.80
56142;BME280;42018;48.588;10.836;2023-03-21T05:59:00;96932.28;;;8.73;73.55
56142;BME280;42018;48.588;10.836;2023-03-21T06:01:46;96943.19;;;8.82;73.55
56142;BME280;42018;48.588;10.836;2023-03-21T06:04:31;96940.31;;;8.83;73.39
56142;BME280;42018;48.588;10.836;2023-03-21T06:07:16;96945.00;;;8.76;73.77
56142;BME280;42018;48.588;10.836;2023-03-21T06:10:02;96936.72;;;8.68;74.66
56142;BME280;42018;48.588;10.836;2023-03-21T06:12:48;96939.44;;;8.73;73.80
56142;BME280;42018;48.588;10.836;2023-03-21T06:15:33;96941.50;;;8.71;74.32
56142;BME280;42018;48.588;10.836;2023-03-21T06:18:18;96941.50;;;8.71;74.65
56142;BME280;42018;48.588;10.836;2023-03-21T06:21:04;96947.41;;;8.56;75.58
56142;BME280;42018;48.588;10.836;2023-03-21T06:23:49;96941.03;;;8.52;75.82
56142;BME280;42018;48.588;10.836;2023-03-21T06:26:36;96950.25;;;8.49;75.77
56142;BME280;42018;48.588;10.836;2023-03-21T06:29:21;96944.78;;;8.56;75.65
56142;BME280;42018;48.588;10.836;2023-03-21T06:32:07;96949.53;;;8.54;75.81
56142;BME280;42018;48.588;10.836;2023-03-21T06:34:52;96944.41;;;8.69;75.38
56142;BME280;42018;48.588;10.836;2023-03-21T06:37:37;96946.38;;;8.79;74.70
56142;BME280;42018;48.588;10.836;2023-03-21T06:40:22;96946.41;;;8.84;74.48
56142;BME280;42018;48.588;10.836;2023-03-21T06:43:07;96945.66;;;8.61;75.58
56142;BME280;42018;48.588;10.836;2023-03-21T06:45:53;96947.56;;;8.44;76.72
56142;BME280;42018;48.588;10.836;2023-03-21T06:48:38;96946.59;;;8.11;78.43
56142;BME280;42018;48.588;10.836;2023-03-21T06:51:28;96949.41;;;8.27;77.69
56142;BME280;42018;48.588;10.836;2023-03-21T06:54:13;96942.56;;;8.70;76.24
56142;BME280;42018;48.588;10.836;2023-03-21T06:56:59;96941.38;;;8.82;74.86
56142;BME280;42018;48.588;10.836;2023-03-21T06:59:45;96943.50;;;8.58;76.00
56142;BME280;42018;48.588;10.836;2023-03-21T07:02:30;96952.34;;;8.69;75.74
56142;BME280;42018;48.588;10.836;2023-03-21T07:05:16;96942.91;;;8.78;74.99
56142;BME280;42018;48.588;10.836;2023-03-21T07:08:01;96940.41;;;8.67;75.17
56142;BME280;42018;48.588;10.836;2023-03-21T07:10:46;96949.44;;;8.71;76.35
56142;BME280;42018;48.588;10.836;2023-03-21T07:13:32;96949.34;;;8.87;75.74
56142;BME280;42018;48.588;10.836;2023-03-21T07:16:18;96953.69;;;8.99;75.16
56142;BME280;42018;48.588;10.836;2023-03-21T07:19:03;96950.38;;;9.14;74.55
56142;BME280;42018;48.588;10.836;2023-03-21T07:21:48;96953.03;;;9.14;75.68
56142;BME280;42018;48.588;10.836;2023-03-21T07:24:33;96952.69;;;9.05;75.67
56142;BME280;42018;48.588;10.836;2023-03-21T07:27:19;96957.69;;;9.01;75.88
56142;BME280;42018;48.588;10.836;2023-03-21T07:30:05;96956.72;;;9.13;74.90
56142;BME280;42018;48.588;10.836;2023-03-21T07:32:51;96950.44;;;9.19;74.82
56142;BME280;42018;48.588;10.836;2023-03-21T07:35:37;96950.88;;;9.10;75.78
56142;BME280;42018;48.588;10.836;2023-03-21T07:38:22;96950.50;;;8.97;76.57
56142;BME280;42018;48.588;10.836;2023-03-21T07:41:08;96955.03;;;9.01;75.41
56142;BME280;42018;48.588;10.836;2023-03-21T07:43:53;96945.31;;;8.80;75.85
56142;BME280;42018;48.588;10.836;2023-03-21T07:46:38;96943.22;;;9.09;74.46
56142;BME280;42018;48.588;10.836;2023-03-21T07:49:24;96946.88;;;9.35;74.04
56142;BME280;42018;48.588;10.836;2023-03-21T07:52:10;96947.00;;;9.50;73.50
56142;BME280;42018;48.588;10.836;2023-03-21T07:54:55;96950.53;;;9.29;73.51
56142;BME280;42018;48.588;10.836;2023-03-21T07:57:41;96948.63;;;9.24;73.58
56142;BME280;42018;48.588;10.836;2023-03-21T08:00:26;96945.84;;;9.36;73.16
56142;BME280;42018;48.588;10.836;2023-03-21T08:03:11;96952.16;;;9.35;73.55
56142;BME280;42018;48.588;10.836;2023-03-21T08:05:57;96953.47;;;9.32;72.58
56142;BME280;42018;48.588;10.836;2023-03-21T08:08:43;96949.75;;;9.61;72.58
56142;BME280;42018;48.588;10.836;2023-03-21T08:11:28;96954.84;;;9.72;71.83
56142;BME280;42018;48.588;10.836;2023-03-21T08:14:15;96942.75;;;9.87;71.39
56142;BME280;42018;48.588;10.836;2023-03-21T08:17:01;96943.38;;;9.62;71.20
56142;BME280;42018;48.588;10.836;2023-03-21T08:19:46;96949.34;;;9.84;71.40
56142;BME280;42018;48.588;10.836;2023-03-21T08:22:31;96938.50;;;10.28;69.51
56142;BME280;42018;48.588;10.836;2023-03-21T08:25:18;96940.84;;;10.24;69.49
56142;BME280;42018;48.588;10.836;2023-03-21T08:28:03;96941.28;;;10.53;68.54
56142;BME280;42018;48.588;10.836;2023-03-21T08:30:49;96938.13;;;10.67;67.91
56142;BME280;42018;48.588;10.836;2023-03-21T08:33:34;96928.00;;;10.48;68.11
56142;BME280;42018;48.588;10.836;2023-03-21T08:36:23;96931.53;;;10.74;67.33
56142;BME280;42018;48.588;10.836;2023-03-21T08:39:08;96924.94;;;10.82;67.88
56142;BME280;42018;48.588;10.836;2023-03-21T08:41:54;96929.47;;;11.07;66.88
56142;BME280;42018;48.588;10.836;2023-03-21T08:44:39;96929.50;;;11.17;65.92
56142;BME280;42018;48.588;10.836;2023-03-21T08:47:25;96923.13;;;11.18;65.71
56142;BME280;42018;48.588;10.836;2023-03-21T08:50:11;96927.91;;;11.37;65.96
56142;BME280;42018;48.588;10.836;2023-03-21T08:52:58;96919.94;;;11.42;65.54
56142;BME280;42018;48.588;10.836;2023-03-21T08:55:43;96928.16;;;11.30;65.62
56142;BME280;42018;48.588;10.836;2023-03-21T08:58:29;96918.88;;;11.33;65.40
56142;BME280;42018;48.588;10.836;2023-03-21T09:01:14;96921.25;;;11.65;64.51
56142;BME280;42018;48.588;10.836;2023-03-21T09:03:59;96917.53;;;11.61;63.93
56142;BME280;42018;48.588;10.836;2023-03-21T09:06:45;96917.03;;;11.43;65.39
56142;BME280;42018;48.588;10.836;2023-03-21T09:09:32;96914.88;;;11.61;63.89
56142;BME280;42018;48.588;10.836;2023-03-21T09:12:18;96918.59;;;11.65;63.84
56142;BME280;42018;48.588;10.836;2023-03-21T09:15:03;96916.47;;;11.62;63.11
56142;BME280;42018;48.588;10.836;2023-03-21T09:17:49;96918.88;;;11.48;63.69
56142;BME280;42018;48.588;10.836;2023-03-21T09:20:36;96919.69;;;11.33;63.90
56142;BME280;42018;48.588;10.836;2023-03-21T09:23:22;96915.19;;;11.39;64.83
56142;BME280;42018;48.588;10.836;2023-03-21T09:26:08;96913.56;;;11.48;63.65
56142;BME280;42018;48.588;10.836;2023-03-21T09:28:54;96919.13;;;11.51;63.30
56142;BME280;42018;48.588;10.836;2023-03-21T09:31:40;96914.03;;;12.01;62.18
56142;BME280;42018;48.588;10.836;2023-03-21T09:34:27;96908.50;;;11.72;61.78
56142;BME280;42018;48.588;10.836;2023-03-21T09:37:13;96914.91;;;11.15;62.73
56142;BME280;42018;48.588;10.836;2023-03-21T09:39:58;96911.41;;;11.81;61.57
56142;BME280;42018;48.588;10.836;2023-03-21T09:48:33;96905.16;;;12.36;58.49
56142;BME280;42018;48.588;10.836;2023-03-21T09:51:20;96912.16;;;12.12;60.13
56142;BME280;42018;48.588;10.836;2023-03-21T09:54:07;96910.09;;;11.93;58.24
56142;BME280;42018;48.588;10.836;2023-03-21T09:56:57;96908.75;;;11.75;58.61
56142;BME280;42018;48.588;10.836;2023-03-21T09:59:45;96911.97;;;11.78;60.41
56142;BME280;42018;48.588;10.836;2023-03-21T10:05:25;96903.22;;;11.46;58.09
56142;BME280;42018;48.588;10.836;2023-03-21T10:08:17;96898.41;;;11.84;58.52
56142;BME280;42018;48.588;10.836;2023-03-21T10:13:56;96897.91;;;11.62;59.37
56142;BME280;42018;48.588;10.836;2023-03-21T10:16:44;96881.03;;;12.22;58.35
56142;BME280;42018;48.588;10.836;2023-03-21T10:19:29;96886.19;;;12.58;58.53
56142;BME280;42018;48.588;10.836;2023-03-21T10:22:14;96877.81;;;12.80;57.64
56142;BME280;42018;48.588;10.836;2023-03-21T10:25:00;96864.91;;;13.03;55.88
56142;BME280;42018;48.588;10.836;2023-03-21T10:27:45;96859.47;;;13.18;55.48
56142;BME280;42018;48.588;10.836;2023-03-21T10:33:24;96863.00;;;12.69;56.53
56142;BME280;42018;48.588;10.836;2023-03-21T10:36:11;96855.56;;;12.66;56.16
56142;BME280;42018;48.588;10.836;2023-03-21T10:39:19;96854.09;;;13.23;55.43
56142;BME280;42018;48.588;10.836;2023-03-21T10:42:07;96851.63;;;13.90;53.34
56142;BME280;42018;48.588;10.836;2023-03-21T10:44:59;96849.13;;;13.99;51.62
56142;BME280;42018;48.588;10.836;2023-03-21T10:47:46;96846.09;;;14.29;52.65
56142;BME280;42018;48.588;10.836;2023-03-21T10:50:31;96844.13;;;14.16;52.37
56142;BME280;42018;48.588;10.836;2023-03-21T10:53:18;96848.13;;;14.37;50.81
56142;BME280;42018;48.588;10.836;2023-03-21T10:56:06;96853.31;;;14.05;52.30
56142;BME280;42018;48.588;10.836;2023-03-21T10:58:53;96837.06;;;14.68;50.89
56142;BME280;42018;48.588;10.836;2023-03-21T11:01:40;96842.09;;;14.51;50.17
56142;BME280;42018;48.588;10.836;2023-03-21T11:04:26;96840.03;;;14.24;50.63
56142;BME280;42018;48.588;10.836;2023-03-21T11:07:13;96839.94;;;14.10;50.82
56142;BME280;42018;48.588;10.836;2023-03-21T11:10:00;96847.66;;;13.87;52.67
56142;BME280;42018;48.588;10.836;2023-03-21T11:12:56;96839.03;;;14.38;50.26
56142;BME280;42018;48.588;10.836;2023-03-21T11:15:52;96837.25;;;13.91;52.10
56142;BME280;42018;48.588;10.836;2023-03-21T11:18:39;96838.53;;;13.94;52.28
56142;BME280;42018;48.588;10.836;2023-03-21T11:21:25;96836.50;;;13.85;51.07
56142;BME280;42018;48.588;10.836;2023-03-21T11:24:16;96833.81;;;13.85;51.95
56142;BME280;42018;48.588;10.836;2023-03-21T11:27:04;96828.19;;;14.54;50.30
56142;BME280;42018;48.588;10.836;2023-03-21T11:29:50;96821.03;;;14.49;50.40
56142;BME280;42018;48.588;10.836;2023-03-21T11:32:36;96816.09;;;14.80;49.82
56142;BME280;42018;48.588;10.836;2023-03-21T11:35:27;96816.31;;;15.17;49.39
56142;BME280;42018;48.588;10.836;2023-03-21T11:38:23;96812.25;;;14.49;50.14
56142;BME280;42018;48.588;10.836;2023-03-21T11:41:11;96814.41;;;14.84;51.40
56142;BME280;42018;48.588;10.836;2023-03-21T11:44:08;96806.69;;;15.48;49.59
56142;BME280;42018;48.588;10.836;2023-03-21T11:47:08;96796.78;;;15.02;49.12
56142;BME280;42018;48.588;10.836;2023-03-21T11:49:54;96790.47;;;14.98;48.72
56142;BME280;42018;48.588;10.836;2023-03-21T11:52:40;96789.41;;;15.13;48.84
56142;BME280;42018;48.588;10.836;2023-03-21T11:55:41;96783.59;;;15.25;48.84
56142;BME280;42018;48.588;10.836;2023-03-21T12:07:27;96776.69;;;15.24;46.94
56142;BME280;42018;48.588;10.836;2023-03-21T12:24:44;96758.22;;;15.83;44.94
56142;BME280;42018;48.588;10.836;2023-03-21T12:30:43;96745.03;;;16.72;43.66
56142;BME280;42018;48.588;10.836;2023-03-21T12:39:35;96740.88;;;16.08;44.25
56142;BME280;42018;48.588;10.836;2023-03-21T12:45:25;96723.66;;;16.36;43.51
56142;BME280;42018;48.588;10.836;2023-03-21T12:48:14;96721.53;;;16.24;44.33
56142;BME280;42018;48.588;10.836;2023-03-21T12:51:02;96724.34;;;16.42;44.39
56142;BME280;42018;48.588;10.836;2023-03-21T12:56:39;96721.69;;;16.42;45.29
56142;BME280;42018;48.588;10.836;2023-03-21T12:59:33;96706.13;;;16.89;44.87
56142;BME280;42018;48.588;10.836;2023-03-21T13:02:22;96707.16;;;17.33;43.04
56142;BME280;42018;48.588;10.836;2023-03-21T13:08:10;96697.09;;;17.47;43.07
56142;BME280;42018;48.588;10.836;2023-03-21T13:10:59;96687.22;;;16.85;45.26
56142;BME280;42018;48.588;10.836;2023-03-21T13:25:36;96686.56;;;16.35;44.87
56142;BME280;42018;48.588;10.836;2023-03-21T13:28:18;96680.16;;;16.67;44.13
56142;BME280;42018;48.588;10.836;2023-03-21T13:31:18;96677.00;;;16.65;44.67
56142;BME280;42018;48.588;10.836;2023-03-21T13:34:06;96668.56;;;16.49;44.74
56142;BME280;42018;48.588;10.836;2023-03-21T13:36:54;96665.41;;;16.24;46.04
56142;BME280;42018;48.588;10.836;2023-03-21T13:39:46;96669.41;;;16.81;44.24
56142;BME280;42018;48.588;10.836;2023-03-21T13:42:33;96658.72;;;17.20;44.16
56142;BME280;42018;48.588;10.836;2023-03-21T13:45:25;96650.34;;;17.05;43.87
56142;BME280;42018;48.588;10.836;2023-03-21T13:51:11;96655.81;;;16.99;44.52
56142;BME280;42018;48.588;10.836;2023-03-21T13:56:55;96649.91;;;16.35;45.09
56142;BME280;42018;48.588;10.836;2023-03-21T13:59:42;96644.81;;;16.25;45.11
56142;BME280;42018;48.588;10.836;2023-03-21T14:02:31;96652.50;;;16.04;46.48
56142;BME280;42018;48.588;10.836;2023-03-21T14:05:19;96644.56;;;16.35;46.51
56142;BME280;42018;48.588;10.836;2023-03-21T14:08:06;96636.03;;;16.56;45.41
56142;BME280;42018;48.588;10.836;2023-03-21T14:10:53;96637.44;;;16.53;44.82
56142;BME280;42018;48.588;10.836;2023-03-21T14:13:40;96631.53;;;16.96;45.20
56142;BME280;42018;48.588;10.836;2023-03-21T14:16:26;96631.16;;;16.58;44.26
56142;BME280;42018;48.588;10.836;2023-03-21T14:19:14;96631.44;;;16.47;44.52
56142;BME280;42018;48.588;10.836;2023-03-21T14:22:00;96634.00;;;16.30;45.68
56142;BME280;42018;48.588;10.836;2023-03-21T14:27:41;96627.56;;;16.85;45.40
56142;BME280;42018;48.588;10.836;2023-03-21T14:30:35;96623.84;;;17.03;44.95
56142;BME280;42018;48.588;10.836;2023-03-21T14:36:09;96616.66;;;17.12;44.09
56142;BME280;42018;48.588;10.836;2023-03-21T14:41:47;96617.53;;;16.68;44.21
56142;BME280;42018;48.588;10.836;2023-03-21T14:44:47;96619.81;;;16.74;44.87
56142;BME280;42018;48.588;10.836;2023-03-21T14:47:32;96611.25;;;16.95;44.27
56142;BME280;42018;48.588;10.836;2023-03-21T14:50:26;96609.44;;;16.82;44.99
56142;BME280;42018;48.588;10.836;2023-03-21T14:53:18;96610.72;;;16.84;44.71
56142;BME280;42018;48.588;10.836;2023-03-21T14:58:49;96617.00;;;16.80;45.14
56142;BME280;42018;48.588;10.836;2023-03-21T15:01:36;96624.69;;;16.27;43.68
56142;BME280;42018;48.588;10.836;2023-03-21T15:04:21;96614.25;;;16.17;44.70
56142;BME280;42018;48.588;10.836;2023-03-21T15:07:21;96607.63;;;16.15;45.17
56142;BME280;42018;48.588;10.836;2023-03-21T15:10:16;96605.59;;;16.43;44.30
56142;BME280;42018;48.588;10.836;2023-03-21T15:13:11;96603.06;;;16.38;44.06
56142;BME280;42018;48.588;10.836;2023-03-21T15:15:57;96599.72;;;16.32;44.18
56142;BME280;42018;48.588;10.836;2023-03-21T15:18:43;96595.22;;;16.41;44.74
56142;BME280;42018;48.588;10.836;2023-03-21T15:21:39;96588.59;;;16.39;44.61
56142;BME280;42018;48.588;10.836;2023-03-21T15:24:34;96599.59;;;16.15;44.59
56142;BME280;42018;48.588;10.836;2023-03-21T15:27:22;96602.72;;;16.08;45.04
56142;BME280;42018;48.588;10.836;2023-03-21T15:30:18;96594.25;;;15.92;45.13
56142;BME280;42018;48.588;10.836;2023-03-21T15:33:06;96591.16;;;15.99;44.40
56142;BME280;42018;48.588;10.836;2023-03-21T15:35:53;96587.81;;;15.93;44.60
56142;BME280;42018;48.588;10.836;2023-03-21T15:38:40;96586.75;;;15.94;44.85
56142;BME280;42018;48.588;10.836;2023-03-21T15:41:27;96589.53;;;16.12;44.57
56142;BME280;42018;48.588;10.836;2023-03-21T15:44:13;96589.59;;;16.20;44.99
56142;BME280;42018;48.588;10.836;2023-03-21T15:46:58;96580.88;;;16.15;45.96
56142;BME280;42018;48.588;10.836;2023-03-21T15:49:44;96589.34;;;16.08;45.57
56142;BME280;42018;48.588;10.836;2023-03-21T15:52:37;96591.41;;;16.11;45.65
56142;BME280;42018;48.588;10.836;2023-03-21T15:55:57;96583.50;;;16.06;45.79
56142;BME280;42018;48.588;10.836;2023-03-21T15:58:37;96579.50;;;15.95;46.30
56142;BME280;42018;48.588;10.836;2023-03-21T16:01:25;96583.34;;;16.02;46.58
56142;BME280;42018;48.588;10.836;2023-03-21T16:04:10;96582.09;;;15.86;45.55
56142;BME280;42018;48.588;10.836;2023-03-21T16:07:03;96582.72;;;15.83;46.42
56142;BME280;42018;48.588;10.836;2023-03-21T16:09:49;96582.09;;;15.50;46.96
56142;BME280;42018;48.588;10.836;2023-03-21T16:12:34;96583.31;;;15.30;46.94
56142;BME280;42018;48.588;10.836;2023-03-21T16:15:20;96584.72;;;15.14;47.08
56142;BME280;42018;48.588;10.836;2023-03-21T16:18:06;96589.78;;;15.01;47.63
56142;BME280;42018;48.588;10.836;2023-03-21T16:20:51;96581.47;;;15.03;48.38
56142;BME280;42018;48.588;10.836;2023-03-21T16:23:38;96592.13;;;15.03;48.40
56142;BME280;42018;48.588;10.836;2023-03-21T16:26:28;96592.03;;;15.08;48.56
56142;BME280;42018;48.588;10.836;2023-03-21T16:29:14;96595.31;;;15.05;48.05
56142;BME280;42018;48.588;10.836;2023-03-21T16:31:59;96599.44;;;14.97;48.67
56142;BME280;42018;48.588;10.836;2023-03-21T16:34:49;96593.44;;;14.92;48.81
56142;BME280;42018;48.588;10.836;2023-03-21T16:37:37;96598.06;;;15.00;49.22
56142;BME280;42018;48.588;10.836;2023-03-21T16:43:14;96600.13;;;15.03;49.40
56142;BME280;42018;48.588;10.836;2023-03-21T16:45:59;96604.28;;;14.95;50.22
56142;BME280;42018;48.588;10.836;2023-03-21T16:48:46;96607.66;;;14.87;49.96